ITY1014 LIMC-LFPG
Flight info
| Callsign | ITY1014 |
|---|---|
| Flight time | N/A |
| Altitude | 34000 |
| Route | DOGUB6TXAOSTA5W/35R AOSTA DCT ORSUD DCT MOLUS DCT UNKIR DCT GIVRI DCT TINIL |
| Aircraft | A320/M-SDE3FGHIRWY/LB1 |
Departure
| Time | 2026-05-07 08:41 |
|---|---|
| Airport | Milan Malpensa International Airport (LIMC) |
Arrival
| Time | N/A |
|---|---|
| Airport | Charles de Gaulle International Airport (LFPG) |
| Time | Latitude | Longitude | Altitude | Speed | Heading |
|---|---|---|---|---|---|
| 2026-05-07 08:05 | 45.61771 | 8.72179 | 741 ft | 0 kts | 79° |
| 2026-05-07 08:32 | 45.61772 | 8.72181 | 742 ft | 0 kts | 79° |
| 2026-05-07 08:32 | 45.61769 | 8.72163 | 714 ft | 7 kts | 84° |
| 2026-05-07 08:32 | 45.61769 | 8.72146 | 714 ft | 0 kts | 90° |
| 2026-05-07 08:33 | 45.61768 | 8.72140 | 760 ft | 4 kts | 98° |
| 2026-05-07 08:33 | 45.61771 | 8.72179 | 743 ft | 0 kts | 79° |
| 2026-05-07 08:34 | 45.61776 | 8.72213 | 757 ft | 18 kts | 80° |
| 2026-05-07 08:34 | 45.61646 | 8.72289 | 742 ft | 27 kts | 171° |
| 2026-05-07 08:34 | 45.61545 | 8.72321 | 742 ft | 0 kts | 162° |
| 2026-05-07 08:34 | 45.61541 | 8.72323 | 742 ft | 0 kts | 162° |
| 2026-05-07 08:35 | 45.61532 | 8.72327 | 742 ft | 6 kts | 162° |
| 2026-05-07 08:35 | 45.61457 | 8.72361 | 742 ft | 10 kts | 162° |
| 2026-05-07 08:35 | 45.61419 | 8.72382 | 742 ft | 5 kts | 150° |
| 2026-05-07 08:35 | 45.61392 | 8.72414 | 742 ft | 5 kts | 138° |
| 2026-05-07 08:36 | 45.61362 | 8.72452 | 742 ft | 6 kts | 138° |
| 2026-05-07 08:36 | 45.61325 | 8.72497 | 742 ft | 11 kts | 143° |
| 2026-05-07 08:36 | 45.61187 | 8.72544 | 742 ft | 27 kts | 171° |
| 2026-05-07 08:36 | 45.61079 | 8.72669 | 742 ft | 22 kts | 84° |
| 2026-05-07 08:37 | 45.61104 | 8.72876 | 742 ft | 23 kts | 78° |
| 2026-05-07 08:37 | 45.61139 | 8.73047 | 742 ft | 18 kts | 58° |
| 2026-05-07 08:37 | 45.61247 | 8.73173 | 742 ft | 22 kts | 30° |
| 2026-05-07 08:37 | 45.61362 | 8.73264 | 742 ft | 18 kts | 27° |
| 2026-05-07 08:38 | 45.61494 | 8.73253 | 742 ft | 21 kts | 352° |
| 2026-05-07 08:38 | 45.61620 | 8.73233 | 742 ft | 1 kts | 15° |
| 2026-05-07 08:38 | 45.61627 | 8.73241 | 742 ft | 1 kts | 44° |
| 2026-05-07 08:38 | 45.61629 | 8.73255 | 742 ft | 2 kts | 76° |
| 2026-05-07 08:39 | 45.61630 | 8.73277 | 742 ft | 3 kts | 86° |
| 2026-05-07 08:39 | 45.61631 | 8.73307 | 742 ft | 3 kts | 88° |
| 2026-05-07 08:39 | 45.61631 | 8.73405 | 742 ft | 16 kts | 96° |
| 2026-05-07 08:39 | 45.61592 | 8.73558 | 742 ft | 17 kts | 107° |
| 2026-05-07 08:40 | 45.61608 | 8.73710 | 741 ft | 11 kts | 49° |
| 2026-05-07 08:40 | 45.61674 | 8.73729 | 741 ft | 10 kts | 347° |
| 2026-05-07 08:40 | 45.61687 | 8.73725 | 741 ft | 4 kts | 348° |
| 2026-05-07 08:40 | 45.61986 | 8.73644 | 742 ft | 93 kts | 349° |
| 2026-05-07 08:41 | 45.62899 | 8.73389 | 748 ft | 170 kts | 349° |
| 2026-05-07 08:41 | 45.64176 | 8.73056 | 1198 ft | 202 kts | 351° |
| 2026-05-07 08:41 | 45.65697 | 8.72697 | 1713 ft | 242 kts | 352° |
| 2026-05-07 08:41 | 45.67508 | 8.72349 | 2355 ft | 281 kts | 355° |
| 2026-05-07 08:42 | 45.69570 | 8.72189 | 3115 ft | 311 kts | 0° |
| 2026-05-07 08:42 | 45.71772 | 8.72195 | 4055 ft | 322 kts | 359° |
| 2026-05-07 08:42 | 45.73810 | 8.71574 | 4693 ft | 282 kts | 333° |
| 2026-05-07 08:42 | 45.75125 | 8.69776 | 4927 ft | 251 kts | 297° |
| 2026-05-07 08:43 | 45.75398 | 8.67426 | 5002 ft | 240 kts | 259° |
| 2026-05-07 08:43 | 45.74704 | 8.65282 | 5007 ft | 239 kts | 238° |
| 2026-05-07 08:43 | 45.73821 | 8.63245 | 5325 ft | 243 kts | 238° |
| 2026-05-07 08:43 | 45.72933 | 8.61199 | 6643 ft | 241 kts | 238° |
| 2026-05-07 08:44 | 45.71822 | 8.59371 | 7818 ft | 252 kts | 222° |
| 2026-05-07 08:44 | 45.70425 | 8.57664 | 8621 ft | 275 kts | 224° |
| 2026-05-07 08:44 | 45.69170 | 8.55540 | 9768 ft | 284 kts | 235° |
| 2026-05-07 08:44 | 45.68059 | 8.53130 | 10636 ft | 302 kts | 239° |
| 2026-05-07 08:45 | 45.66948 | 8.50456 | 11367 ft | 321 kts | 240° |
| 2026-05-07 08:45 | 45.65806 | 8.47664 | 12408 ft | 327 kts | 240° |
| 2026-05-07 08:45 | 45.64630 | 8.44846 | 13544 ft | 331 kts | 240° |
| 2026-05-07 08:45 | 45.63423 | 8.42023 | 14547 ft | 335 kts | 239° |
| 2026-05-07 08:46 | 45.62055 | 8.39301 | 15516 ft | 341 kts | 232° |
| 2026-05-07 08:46 | 45.60564 | 8.36699 | 16479 ft | 344 kts | 235° |
| 2026-05-07 08:46 | 45.59393 | 8.33715 | 17428 ft | 346 kts | 249° |
| 2026-05-07 08:46 | 45.58775 | 8.30379 | 18372 ft | 349 kts | 263° |
| 2026-05-07 08:47 | 45.58770 | 8.26908 | 19205 ft | 353 kts | 277° |
| 2026-05-07 08:47 | 45.59344 | 8.23493 | 20030 ft | 357 kts | 287° |
| 2026-05-07 08:47 | 45.60105 | 8.20100 | 20885 ft | 360 kts | 288° |
| 2026-05-07 08:47 | 45.60901 | 8.16681 | 21721 ft | 364 kts | 288° |
| 2026-05-07 08:48 | 45.61720 | 8.13230 | 22558 ft | 368 kts | 288° |
| 2026-05-07 08:48 | 45.62545 | 8.09750 | 23386 ft | 373 kts | 289° |
| 2026-05-07 08:48 | 45.63376 | 8.06215 | 24085 ft | 377 kts | 288° |
| 2026-05-07 08:48 | 45.64207 | 8.02648 | 24760 ft | 381 kts | 288° |
| 2026-05-07 08:49 | 45.65040 | 7.99044 | 25421 ft | 384 kts | 288° |
| 2026-05-07 08:49 | 45.65874 | 7.95399 | 26068 ft | 387 kts | 288° |
| 2026-05-07 08:49 | 45.66711 | 7.91729 | 26679 ft | 390 kts | 287° |
| 2026-05-07 08:49 | 45.67554 | 7.88020 | 27288 ft | 393 kts | 287° |
| 2026-05-07 08:50 | 45.68407 | 7.84285 | 27907 ft | 397 kts | 287° |
| 2026-05-07 08:50 | 45.69268 | 7.80526 | 28515 ft | 400 kts | 288° |
| 2026-05-07 08:50 | 45.70125 | 7.76781 | 29075 ft | 403 kts | 288° |
| 2026-05-07 08:50 | 45.71000 | 7.72952 | 29667 ft | 406 kts | 288° |
| 2026-05-07 08:51 | 45.71880 | 7.69085 | 30085 ft | 412 kts | 288° |
| 2026-05-07 08:51 | 45.72771 | 7.65156 | 30475 ft | 416 kts | 287° |
| 2026-05-07 08:51 | 45.73667 | 7.61199 | 30888 ft | 419 kts | 287° |
| 2026-05-07 08:51 | 45.74263 | 7.58569 | 31181 ft | 421 kts | 287° |
| 2026-05-07 08:52 | 45.75167 | 7.54572 | 31614 ft | 423 kts | 287° |
| 2026-05-07 08:52 | 45.76067 | 7.50570 | 32162 ft | 421 kts | 287° |
| 2026-05-07 08:52 | 45.76957 | 7.46595 | 32785 ft | 418 kts | 287° |
| 2026-05-07 08:52 | 45.77843 | 7.42638 | 33409 ft | 416 kts | 287° |
| 2026-05-07 08:53 | 45.78913 | 7.38793 | 33900 ft | 417 kts | 295° |
| 2026-05-07 08:53 | 45.80415 | 7.35238 | 34015 ft | 415 kts | 303° |
| 2026-05-07 08:53 | 45.82292 | 7.32154 | 34030 ft | 408 kts | 314° |
| 2026-05-07 08:53 | 45.84510 | 7.29629 | 34032 ft | 408 kts | 321° |
| 2026-05-07 08:54 | 45.89082 | 7.24964 | 34033 ft | 406 kts | 321° |
| 2026-05-07 08:54 | 45.93706 | 7.20284 | 34033 ft | 406 kts | 321° |
| 2026-05-07 08:55 | 45.98319 | 7.15586 | 34041 ft | 407 kts | 321° |
| 2026-05-07 08:55 | 46.02930 | 7.10865 | 34043 ft | 406 kts | 321° |
| 2026-05-07 08:56 | 46.07530 | 7.06139 | 34044 ft | 406 kts | 321° |
| 2026-05-07 08:56 | 46.12121 | 7.01425 | 34025 ft | 405 kts | 321° |
| 2026-05-07 08:57 | 46.16709 | 6.96701 | 34040 ft | 405 kts | 321° |
| 2026-05-07 08:57 | 46.21293 | 6.91956 | 34020 ft | 406 kts | 321° |
| 2026-05-07 08:58 | 46.25891 | 6.87198 | 34008 ft | 407 kts | 321° |
| 2026-05-07 08:58 | 46.30493 | 6.82426 | 34010 ft | 407 kts | 321° |
| 2026-05-07 08:59 | 46.35092 | 6.77641 | 34006 ft | 407 kts | 321° |
| 2026-05-07 08:59 | 46.39688 | 6.72857 | 34020 ft | 407 kts | 321° |
| 2026-05-07 09:00 | 46.44041 | 6.67685 | 34014 ft | 402 kts | 309° |
| 2026-05-07 09:00 | 46.47126 | 6.61057 | 34016 ft | 399 kts | 298° |
| 2026-05-07 09:01 | 46.49895 | 6.54070 | 34013 ft | 399 kts | 298° |
| 2026-05-07 09:01 | 46.52653 | 6.47079 | 34012 ft | 399 kts | 298° |
| 2026-05-07 09:02 | 46.55408 | 6.40078 | 34010 ft | 399 kts | 298° |
| 2026-05-07 09:02 | 46.58160 | 6.33058 | 34014 ft | 400 kts | 298° |
| 2026-05-07 09:03 | 46.60910 | 6.26033 | 34019 ft | 400 kts | 298° |
| 2026-05-07 09:03 | 46.63653 | 6.19001 | 34020 ft | 399 kts | 298° |
| 2026-05-07 09:04 | 46.66392 | 6.11969 | 34027 ft | 399 kts | 298° |
| 2026-05-07 09:04 | 46.69131 | 6.04928 | 34021 ft | 399 kts | 298° |
| 2026-05-07 09:05 | 46.71863 | 5.97889 | 34030 ft | 399 kts | 298° |
| 2026-05-07 09:05 | 46.74576 | 5.90880 | 34031 ft | 400 kts | 298° |
| 2026-05-07 09:06 | 46.77293 | 5.83810 | 34033 ft | 399 kts | 298° |
| 2026-05-07 09:06 | 46.80057 | 5.76769 | 34045 ft | 406 kts | 302° |
| 2026-05-07 09:07 | 46.81877 | 5.73509 | 34053 ft | 422 kts | 313° |
| 2026-05-07 09:07 | 46.84163 | 5.70719 | 34048 ft | 436 kts | 324° |
| 2026-05-07 09:07 | 46.89510 | 5.66343 | 34055 ft | 443 kts | 329° |
| 2026-05-07 09:08 | 46.94914 | 5.62008 | 34057 ft | 443 kts | 329° |
| 2026-05-07 09:08 | 47.00318 | 5.57650 | 34057 ft | 443 kts | 329° |
| 2026-05-07 09:09 | 47.05697 | 5.53301 | 34058 ft | 433 kts | 329° |
| 2026-05-07 09:09 | 47.08288 | 5.51212 | 34056 ft | 418 kts | 329° |
| 2026-05-07 09:09 | 47.10820 | 5.49170 | 34057 ft | 413 kts | 329° |
| 2026-05-07 09:10 | 47.15826 | 5.45112 | 34054 ft | 410 kts | 329° |
| 2026-05-07 09:10 | 47.20819 | 5.41054 | 34054 ft | 410 kts | 329° |
| 2026-05-07 09:11 | 47.25685 | 5.37101 | 34048 ft | 376 kts | 329° |
| 2026-05-07 09:11 | 47.27901 | 5.35299 | 34053 ft | 361 kts | 329° |
| 2026-05-07 09:11 | 47.30058 | 5.33540 | 34054 ft | 347 kts | 328° |
| 2026-05-07 09:12 | 47.32126 | 5.31851 | 34058 ft | 335 kts | 328° |
| 2026-05-07 09:12 | 47.34148 | 5.30194 | 34058 ft | 330 kts | 328° |
| 2026-05-07 09:12 | 47.38151 | 5.26914 | 34055 ft | 329 kts | 328° |
| 2026-05-07 09:13 | 47.41572 | 5.22705 | 34056 ft | 321 kts | 296° |
| 2026-05-07 09:13 | 47.42229 | 5.19587 | 34057 ft | 319 kts | 274° |
| 2026-05-07 09:13 | 47.41977 | 5.16348 | 34057 ft | 321 kts | 251° |
| 2026-05-07 09:14 | 47.40943 | 5.13422 | 34055 ft | 325 kts | 233° |
| 2026-05-07 09:14 | 47.39307 | 5.11136 | 33707 ft | 325 kts | 214° |
| 2026-05-07 09:14 | 47.37218 | 5.09897 | 32994 ft | 327 kts | 191° |
| 2026-05-07 09:14 | 47.34951 | 5.09671 | 32264 ft | 327 kts | 184° |
| 2026-05-07 09:15 | 47.32689 | 5.09569 | 31586 ft | 324 kts | 184° |
| 2026-05-07 09:15 | 47.30443 | 5.09460 | 30955 ft | 321 kts | 184° |
| 2026-05-07 09:15 | 47.28226 | 5.09350 | 30352 ft | 317 kts | 184° |
| 2026-05-07 09:15 | 47.26030 | 5.09237 | 29681 ft | 314 kts | 184° |
| 2026-05-07 09:16 | 47.23858 | 5.09122 | 28992 ft | 310 kts | 184° |
| 2026-05-07 09:16 | 47.21713 | 5.09008 | 28327 ft | 307 kts | 184° |
| 2026-05-07 09:16 | 47.19592 | 5.08895 | 27688 ft | 303 kts | 184° |
| 2026-05-07 09:16 | 47.17501 | 5.08783 | 27067 ft | 299 kts | 184° |
| 2026-05-07 09:17 | 47.15425 | 5.08674 | 26449 ft | 296 kts | 184° |
| 2026-05-07 09:17 | 47.13378 | 5.08566 | 25850 ft | 293 kts | 184° |
| 2026-05-07 09:17 | 47.11352 | 5.08459 | 25272 ft | 290 kts | 184° |
| 2026-05-07 09:17 | 47.09347 | 5.08354 | 24703 ft | 287 kts | 184° |
| 2026-05-07 09:18 | 47.07364 | 5.08249 | 24147 ft | 284 kts | 184° |
| 2026-05-07 09:18 | 47.05424 | 5.08146 | 23596 ft | 281 kts | 184° |
| 2026-05-07 09:18 | 47.03478 | 5.08043 | 22962 ft | 279 kts | 184° |
| 2026-05-07 09:18 | 47.01546 | 5.07942 | 22359 ft | 276 kts | 184° |
| 2026-05-07 09:19 | 46.99633 | 5.07844 | 21777 ft | 274 kts | 184° |
| 2026-05-07 09:19 | 46.97736 | 5.07750 | 21213 ft | 271 kts | 184° |
| 2026-05-07 09:19 | 46.95857 | 5.07656 | 20666 ft | 269 kts | 184° |
| 2026-05-07 09:19 | 46.93993 | 5.07561 | 20153 ft | 267 kts | 184° |
| 2026-05-07 09:20 | 46.92141 | 5.07461 | 19656 ft | 265 kts | 185° |
| 2026-05-07 09:20 | 46.90304 | 5.07360 | 19149 ft | 263 kts | 185° |
| 2026-05-07 09:20 | 46.88478 | 5.07263 | 18652 ft | 261 kts | 184° |
| 2026-05-07 09:20 | 46.86689 | 5.07170 | 18164 ft | 259 kts | 184° |
| 2026-05-07 09:21 | 46.84893 | 5.07078 | 17620 ft | 258 kts | 185° |
| 2026-05-07 09:21 | 46.83085 | 5.06987 | 17107 ft | 255 kts | 185° |
| 2026-05-07 09:21 | 46.81316 | 5.06898 | 16615 ft | 253 kts | 185° |
| 2026-05-07 09:21 | 46.79562 | 5.06808 | 16142 ft | 251 kts | 185° |
| 2026-05-07 09:22 | 46.77820 | 5.06718 | 15682 ft | 249 kts | 185° |
| 2026-05-07 09:22 | 46.76096 | 5.06628 | 15225 ft | 247 kts | 185° |
| 2026-05-07 09:22 | 46.74379 | 5.06537 | 14480 ft | 257 kts | 185° |
| 2026-05-07 09:22 | 46.72495 | 5.06430 | 13617 ft | 278 kts | 184° |
| 2026-05-07 09:23 | 46.70508 | 5.06319 | 12833 ft | 292 kts | 184° |
| 2026-05-07 09:23 | 46.68466 | 5.06213 | 12333 ft | 293 kts | 184° |
| 2026-05-07 09:23 | 46.66459 | 5.06111 | 11911 ft | 292 kts | 184° |
| 2026-05-07 09:23 | 46.64437 | 5.06007 | 11491 ft | 290 kts | 184° |
| 2026-05-07 09:24 | 46.62430 | 5.05903 | 11077 ft | 288 kts | 184° |
| 2026-05-07 09:24 | 46.60436 | 5.05801 | 10659 ft | 286 kts | 184° |
| 2026-05-07 09:24 | 46.58451 | 5.05700 | 10317 ft | 284 kts | 184° |
| 2026-05-07 09:24 | 46.56472 | 5.05599 | 10074 ft | 284 kts | 184° |
| 2026-05-07 09:25 | 46.54500 | 5.05503 | 9915 ft | 283 kts | 184° |
| 2026-05-07 09:25 | 46.52530 | 5.05407 | 9778 ft | 283 kts | 184° |
| 2026-05-07 09:25 | 46.50564 | 5.05307 | 9644 ft | 283 kts | 184° |
| 2026-05-07 09:25 | 46.48600 | 5.05203 | 9509 ft | 282 kts | 184° |
| 2026-05-07 09:26 | 46.46641 | 5.05097 | 9373 ft | 282 kts | 184° |
| 2026-05-07 09:26 | 46.44684 | 5.04995 | 9234 ft | 281 kts | 183° |
| 2026-05-07 09:26 | 46.42730 | 5.04894 | 9098 ft | 281 kts | 183° |
| 2026-05-07 09:26 | 46.40780 | 5.04791 | 8966 ft | 280 kts | 183° |
| 2026-05-07 09:27 | 46.38835 | 5.04689 | 8837 ft | 280 kts | 183° |
| 2026-05-07 09:27 | 46.36887 | 5.04588 | 8699 ft | 279 kts | 183° |
| 2026-05-07 09:27 | 46.33005 | 5.04394 | 8444 ft | 279 kts | 183° |
| 2026-05-07 09:28 | 46.31066 | 5.04298 | 8314 ft | 278 kts | 183° |
| 2026-05-07 09:28 | 46.29135 | 5.04203 | 8186 ft | 278 kts | 183° |
| 2026-05-07 09:28 | 46.27229 | 5.04110 | 8061 ft | 277 kts | 183° |
| 2026-05-07 09:28 | 46.25304 | 5.04016 | 8037 ft | 277 kts | 183° |
| 2026-05-07 09:29 | 46.23379 | 5.03918 | 8047 ft | 277 kts | 182° |
| 2026-05-07 09:29 | 46.21451 | 5.03818 | 8048 ft | 277 kts | 183° |
| 2026-05-07 09:29 | 46.19525 | 5.03718 | 8047 ft | 277 kts | 183° |
| 2026-05-07 09:29 | 46.17603 | 5.03618 | 8047 ft | 276 kts | 183° |
| 2026-05-07 09:30 | 46.15678 | 5.03520 | 8049 ft | 277 kts | 183° |
| 2026-05-07 09:30 | 46.13753 | 5.03426 | 8047 ft | 276 kts | 183° |